Time;durP1;ratioP1;P1;durP2;ratioP2;P2;SDS_P1;SDS_P2;PMS_P1;PMS_P2;Temp;Humidity;BMP_temperature;BMP_pressure;BME280_temperature;BME280_humidity;BME280_pressure;Samples;Min_cycle;Max_cycle;Signal;HPM_P1;HPM_P2
2023/10/11 00:03:05;;;;;;;9.80;5.10;;;21.30;95.70;;;;;;5030754;28;20053;-65
2023/10/11 00:05:40;;;;;;;9.55;5.00;;;21.00;95.60;;;;;;5042125;28;20148;-65
2023/10/11 00:08:08;;;;;;;9.88;5.65;;;21.00;96.30;;;;;;5031250;28;20111;-65
2023/10/11 00:10:43;;;;;;;8.98;5.43;;;21.30;96.30;;;;;;5058097;28;20049;-65
2023/10/11 00:13:15;;;;;;;8.88;5.80;;;21.30;96.00;;;;;;5051532;28;20049;-65
2023/10/11 00:15:48;;;;;;;8.25;5.35;;;21.20;97.70;;;;;;5021263;28;20053;-65
2023/10/11 00:18:22;;;;;;;9.77;5.68;;;21.00;97.50;;;;;;5034966;28;20049;-65
2023/10/11 00:20:57;;;;;;;11.75;5.85;;;21.10;95.70;;;;;;5034811;28;20375;-65
2023/10/11 00:23:26;;;;;;;9.50;5.53;;;21.20;96.40;;;;;;5051330;28;20071;-65
2023/10/11 00:25:53;;;;;;;10.25;5.60;;;21.30;96.40;;;;;;5045868;28;20095;-66
2023/10/11 00:28:24;;;;;;;9.57;5.72;;;21.20;96.40;;;;;;5048735;28;20120;-65
2023/10/11 00:30:57;;;;;;;8.57;5.57;;;21.20;96.40;;;;;;5045300;28;20061;-65
2023/10/11 00:33:24;;;;;;;8.20;5.22;;;21.00;96.50;;;;;;5020429;28;20053;-65
2023/10/11 00:35:50;;;;;;;10.20;6.00;;;21.10;96.40;;;;;;5026549;28;20053;-65
2023/10/11 00:38:20;;;;;;;9.63;5.88;;;21.20;97.40;;;;;;5039464;28;20056;-65
2023/10/11 00:41:07;;;;;;;12.50;6.18;;;21.10;96.50;;;;;;5047152;28;20100;-65
2023/10/11 00:43:37;;;;;;;12.27;6.15;;;21.20;96.60;;;;;;5027338;28;20084;-65
2023/10/11 00:46:08;;;;;;;10.88;5.88;;;21.40;97.90;;;;;;5016228;28;20050;-65
2023/10/11 00:48:35;;;;;;;10.45;5.90;;;21.10;96.60;;;;;;5045702;28;20959;-65
2023/10/11 00:51:01;;;;;;;10.82;5.90;;;21.20;97.60;;;;;;5037731;28;20029;-65
2023/10/11 00:53:34;;;;;;;10.75;6.00;;;21.50;96.50;;;;;;5033069;28;20414;-66
2023/10/11 00:56:05;;;;;;;9.88;6.20;;;21.10;97.40;;;;;;5046507;28;20037;-65
2023/10/11 00:58:31;;;;;;;9.70;6.40;;;21.10;95.90;;;;;;5044730;28;20123;-65
2023/10/11 01:01:02;;;;;;;10.23;6.25;;;21.20;98.00;;;;;;5051081;28;20059;-65
2023/10/11 01:03:32;;;;;;;10.32;6.18;;;21.20;96.60;;;;;;5040693;28;20053;-65
2023/10/11 01:05:59;;;;;;;10.95;6.35;;;20.90;96.50;;;;;;5040798;28;20049;-65
2023/10/11 01:08:26;;;;;;;10.15;6.05;;;;;;;;;;5040486;28;20053;-65
2023/10/11 01:10:53;;;;;;;11.65;6.13;;;21.60;95.80;;;;;;5049856;28;20075;-65
2023/10/11 01:13:19;;;;;;;11.13;6.28;;;21.20;96.60;;;;;;5037914;28;20061;-65
2023/10/11 01:15:45;;;;;;;9.85;5.93;;;21.20;96.50;;;;;;5032131;28;20061;-64
2023/10/11 01:18:12;;;;;;;10.93;5.90;;;21.20;96.50;;;;;;5014093;28;20037;-64
2023/10/11 01:20:40;;;;;;;10.88;6.35;;;21.30;97.60;;;;;;5030958;28;20134;-64
2023/10/11 01:23:06;;;;;;;12.02;6.57;;;21.00;96.50;;;;;;5032408;28;20049;-65
2023/10/11 01:25:33;;;;;;;10.32;6.40;;;21.20;97.90;;;;;;5043640;28;20107;-65
2023/10/11 01:27:59;;;;;;;12.30;6.93;;;21.30;96.60;;;;;;5024869;28;20052;-65
2023/10/11 01:30:27;;;;;;;11.27;6.50;;;21.20;96.50;;;;;;5050969;28;20509;-65
2023/10/11 01:32:55;;;;;;;11.02;6.25;;;20.90;97.80;;;;;;5037275;28;20503;-65
2023/10/11 01:35:20;;;;;;;10.73;6.68;;;21.10;97.60;;;;;;5039171;28;20539;-65
2023/10/11 01:37:54;;;;;;;12.18;6.53;;;21.10;96.60;;;;;;5033630;28;20084;-65
2023/10/11 01:40:20;;;;;;;9.70;6.25;;;21.10;96.70;;;;;;5050273;28;20120;-65
2023/10/11 01:42:52;;;;;;;10.13;6.35;;;21.20;96.60;;;;;;5050316;28;20136;-65
2023/10/11 01:45:19;;;;;;;11.30;6.40;;;21.10;96.90;;;;;;5043747;28;20051;-64
2023/10/11 01:47:46;;;;;;;11.68;6.38;;;21.10;96.70;;;;;;5051855;28;20048;-64
2023/10/11 01:50:15;;;;;;;12.10;7.28;;;21.10;97.70;;;;;;5053789;28;20510;-65
2023/10/11 01:52:42;;;;;;;10.43;6.80;;;20.90;96.60;;;;;;5051849;28;20041;-65
2023/10/11 01:55:10;;;;;;;12.50;6.82;;;21.20;97.70;;;;;;5037262;28;20045;-64
2023/10/11 01:57:39;;;;;;;11.98;6.60;;;21.50;96.60;;;;;;5048699;28;20094;-65
2023/10/11 02:00:13;;;;;;;12.57;6.68;;;20.80;97.50;;;;;;5039358;28;20048;-65
2023/10/11 02:02:45;;;;;;;13.18;6.72;;;21.20;97.60;;;;;;5037142;28;20037;-65
2023/10/11 02:05:15;;;;;;;11.98;6.88;;;21.10;98.00;;;;;;5062969;28;20061;-65
2023/10/11 02:07:41;;;;;;;11.93;6.50;;;21.00;96.70;;;;;;5050215;28;20045;-65
2023/10/11 02:10:12;;;;;;;12.50;7.45;;;21.30;96.70;;;;;;5041626;28;20049;-66
2023/10/11 02:12:40;;;;;;;12.10;7.07;;;21.00;96.50;;;;;;5034787;28;20551;-65
2023/10/11 02:15:07;;;;;;;10.45;6.55;;;21.10;96.70;;;;;;5045265;28;20049;-65
2023/10/11 02:17:37;;;;;;;12.30;6.28;;;21.10;98.20;;;;;;5048433;28;20103;-65
2023/10/11 02:20:11;;;;;;;15.23;7.07;;;21.00;96.70;;;;;;5052290;28;20055;-65
2023/10/11 02:22:37;;;;;;;11.45;7.15;;;20.90;96.60;;;;;;5039305;28;20120;-65
2023/10/11 02:25:04;;;;;;;10.50;6.57;;;20.90;96.60;;;;;;5053911;28;20582;-65
2023/10/11 02:27:32;;;;;;;11.27;7.03;;;21.00;96.60;;;;;;5054372;28;20052;-65
2023/10/11 02:30:01;;;;;;;12.68;6.90;;;21.10;96.70;;;;;;5053128;28;20052;-65
2023/10/11 02:32:32;;;;;;;12.57;6.60;;;21.00;96.70;;;;;;5047582;28;20053;-65
2023/10/11 02:34:58;;;;;;;11.07;6.60;;;20.90;96.70;;;;;;5046511;28;20037;-65
2023/10/11 02:37:25;;;;;;;15.23;7.70;;;21.00;97.80;;;;;;5020678;28;20154;-65
2023/10/11 02:39:51;;;;;;;13.32;7.30;;;;;;;;;;5036648;28;20049;-65
2023/10/11 02:42:19;;;;;;;11.75;6.88;;;21.10;95.90;;;;;;5039474;28;20445;-65
2023/10/11 02:44:45;;;;;;;12.15;7.32;;;20.90;96.80;;;;;;5041411;28;20482;-65
2023/10/11 02:47:11;;;;;;;13.00;7.22;;;21.50;98.20;;;;;;5034186;28;20045;-65
2023/10/11 02:49:36;;;;;;;14.43;7.25;;;21.00;97.70;;;;;;5047376;28;20467;-65
2023/10/11 02:52:08;;;;;;;10.65;6.93;;;21.20;97.00;;;;;;5035555;28;20040;-65
2023/10/11 02:54:38;;;;;;;16.55;7.53;;;21.00;96.40;;;;;;5040913;28;20037;-65
2023/10/11 02:57:09;;;;;;;13.00;7.30;;;21.00;96.80;;;;;;5048617;28;20072;-65
2023/10/11 02:59:34;;;;;;;12.73;7.80;;;21.20;98.00;;;;;;5052467;28;20053;-65
2023/10/11 03:02:00;;;;;;;12.60;7.35;;;21.30;96.90;;;;;;5050586;28;20043;-65
2023/10/11 03:04:44;;;;;;;12.35;7.47;;;21.20;96.80;;;;;;5050402;28;20088;-65
2023/10/11 03:07:23;;;;;;;13.23;7.05;;;21.10;96.90;;;;;;5032670;28;20057;-65
2023/10/11 03:09:49;;;;;;;15.88;7.40;;;21.00;96.90;;;;;;5020865;28;20064;-65
2023/10/11 03:12:18;;;;;;;13.48;7.55;;;21.10;97.80;;;;;;5051366;28;20103;-64
2023/10/11 03:14:47;;;;;;;16.05;7.53;;;21.10;96.40;;;;;;5053724;28;20044;-65
2023/10/11 03:17:16;;;;;;;13.73;7.75;;;21.10;98.30;;;;;;5053490;28;20552;-65
2023/10/11 03:19:43;;;;;;;14.05;7.00;;;21.20;98.30;;;;;;5051362;28;20048;-65
2023/10/11 03:22:19;;;;;;;12.63;7.60;;;21.00;96.90;;;;;;5042549;28;20554;-65
2023/10/11 03:24:49;;;;;;;14.93;7.78;;;21.00;96.90;;;;;;5033149;28;20080;-65
2023/10/11 03:27:16;;;;;;;14.88;7.80;;;21.10;97.00;;;;;;5037821;28;20131;-65
2023/10/11 03:29:41;;;;;;;13.55;8.15;;;20.80;96.80;;;;;;5024004;28;20530;-65
2023/10/11 03:32:07;;;;;;;13.02;7.75;;;20.80;98.10;;;;;;5049272;28;20102;-65
2023/10/11 03:34:33;;;;;;;12.77;7.72;;;20.90;98.30;;;;;;5062954;28;20051;-65
2023/10/11 03:36:59;;;;;;;16.85;7.90;;;21.00;96.80;;;;;;5053270;28;20482;-65
2023/10/11 03:39:44;;;;;;;12.18;7.78;;;21.30;97.00;;;;;;5045734;28;20037;-65
2023/10/11 03:44:36;;;;;;;11.90;7.53;;;21.10;97.00;;;;;;5041588;28;20048;-65
2023/10/11 03:47:06;;;;;;;13.15;7.97;;;21.10;97.00;;;;;;5045984;28;20071;-65
2023/10/11 03:49:54;;;;;;;12.88;7.82;;;21.10;98.10;;;;;;5031896;28;20076;-65
2023/10/11 03:52:22;;;;;;;14.57;8.48;;;20.80;97.00;;;;;;5051328;28;20689;-64
2023/10/11 03:55:01;;;;;;;13.70;7.82;;;20.80;96.90;;;;;;5046239;28;20321;-64
2023/10/11 03:57:27;;;;;;;14.07;8.10;;;20.90;98.00;;;;;;5048577;28;20049;-65
2023/10/11 03:59:54;;;;;;;12.98;7.85;;;21.00;98.20;;;;;;5030727;28;20060;-65
2023/10/11 04:02:23;;;;;;;13.80;8.32;;;;;;;;;;5046973;28;20122;-64
2023/10/11 04:04:49;;;;;;;15.63;8.27;;;21.00;96.40;;;;;;5037309;28;20052;-65
2023/10/11 04:07:16;;;;;;;17.52;8.75;;;21.00;98.50;;;;;;5051418;28;20498;-66
2023/10/11 04:09:45;;;;;;;12.40;7.50;;;21.00;97.10;;;;;;5030458;28;20095;-64
2023/10/11 04:12:11;;;;;;;12.70;7.25;;;20.90;97.00;;;;;;5031717;28;20128;-65
2023/10/11 04:14:46;;;;;;;10.95;7.50;;;20.90;98.00;;;;;;5038436;28;20174;-65
2023/10/11 04:19:49;;;;;;;10.70;7.45;;;21.00;97.10;;;;;;5035231;28;20049;-65
2023/10/11 04:22:34;;;;;;;11.27;6.97;;;20.90;98.40;;;;;;5032009;28;20050;-65
2023/10/11 04:25:07;;;;;;;17.65;7.68;;;21.00;98.40;;;;;;5031983;28;20395;-65
2023/10/11 04:30:17;;;;;;;13.25;7.60;;;21.10;96.70;;;;;;5040579;28;20065;-66
2023/10/11 04:32:46;;;;;;;14.30;7.45;;;20.80;97.00;;;;;;5032394;28;20064;-65
2023/10/11 04:35:36;;;;;;;14.00;7.55;;;21.00;98.40;;;;;;5039303;28;20064;-65
2023/10/11 04:38:02;;;;;;;13.18;7.85;;;21.00;98.40;;;;;;5043056;28;20053;-64
2023/10/11 04:40:51;;;;;;;13.05;7.90;;;;;;;;;;5043584;28;20053;-65
2023/10/11 04:43:20;;;;;;;14.93;7.95;;;20.90;98.10;;;;;;5048266;28;20045;-65
2023/10/11 04:45:51;;;;;;;12.85;7.43;;;20.90;98.60;;;;;;5051339;28;20087;-64
2023/10/11 04:48:19;;;;;;;12.48;7.38;;;20.90;97.30;;;;;;5033328;28;20082;-66
2023/10/11 04:50:45;;;;;;;11.98;7.10;;;20.90;98.10;;;;;;5022221;28;20049;-65
2023/10/11 04:53:18;;;;;;;15.95;7.68;;;20.70;98.00;;;;;;5031963;28;20049;-65
2023/10/11 04:55:59;;;;;;;13.43;7.50;;;21.00;97.20;;;;;;5032847;28;20383;-65
2023/10/11 05:01:11;;;;;;;12.02;7.10;;;20.80;96.90;;;;;;5051783;28;20544;-65
2023/10/11 05:03:42;;;;;;;11.55;6.75;;;20.80;97.20;;;;;;5047685;28;20073;-65
2023/10/11 05:06:15;;;;;;;14.77;7.55;;;21.10;96.60;;;;;;5034863;28;20057;-65
2023/10/11 05:09:04;;;;;;;11.63;7.25;;;21.10;96.80;;;;;;5036086;28;20402;-65
2023/10/11 05:11:50;;;;;;;12.63;7.43;;;21.00;97.10;;;;;;5036185;28;20394;-65
2023/10/11 05:14:36;;;;;;;13.02;7.32;;;20.90;98.60;;;;;;5049606;28;20048;-65
2023/10/11 05:19:55;;;;;;;11.02;6.78;;;20.90;98.20;;;;;;5051321;28;20521;-64
2023/10/11 05:22:33;;;;;;;13.52;7.57;;;20.90;98.60;;;;;;5036507;28;20072;-65
2023/10/11 05:30:16;;;;;;;13.68;7.28;;;20.90;98.40;;;;;;5050567;28;20119;-65
2023/10/11 05:32:49;;;;;;;12.55;7.72;;;21.10;97.20;;;;;;5043317;28;20057;-65
2023/10/11 05:35:43;;;;;;;11.10;6.78;;;20.90;97.30;;;;;;5047827;28;20045;-64
2023/10/11 05:52:25;;;;;;;15.77;7.75;;;21.00;96.80;;;;;;5035002;28;20128;-65
2023/10/11 05:54:52;;;;;;;13.85;7.32;;;21.00;98.30;;;;;;5009041;28;20440;-65
2023/10/11 05:57:23;;;;;;;12.77;7.55;;;20.70;98.50;;;;;;5032132;28;20505;-64
2023/10/11 05:59:49;;;;;;;14.40;7.85;;;20.90;98.60;;;;;;4998572;28;20054;-64
2023/10/11 06:02:14;;;;;;;17.20;7.47;;;20.80;98.30;;;;;;5016345;28;20189;-65
2023/10/11 06:04:40;;;;;;;12.88;7.20;;;20.70;97.20;;;;;;5031255;28;20132;-64
2023/10/11 06:07:07;;;;;;;14.68;7.13;;;20.80;98.30;;;;;;5013315;28;20050;-65
2023/10/11 06:09:39;;;;;;;13.80;7.57;;;;;;;;;;5030750;28;20188;-65
2023/10/11 06:12:22;;;;;;;13.80;7.50;;;;;;;;;;5022877;28;20409;-63
2023/10/11 06:14:53;;;;;;;;;;;20.90;96.70;;;;;;5031053;28;20300;-65
2023/10/11 06:22:52;;;;;;;13.68;7.38;;;21.00;97.10;;;;;;4999057;28;20048;-65
2023/10/11 06:25:23;;;;;;;15.20;7.72;;;20.90;97.30;;;;;;5053324;28;20044;-65
2023/10/11 06:30:25;;;;;;;21.52;8.73;;;20.70;98.20;;;;;;5044906;28;20068;-67
2023/10/11 06:32:52;;;;;;;22.67;9.82;;;20.90;98.70;;;;;;5033844;28;20052;-66
2023/10/11 06:35:24;;;;;;;19.33;9.43;;;20.90;98.20;;;;;;5040480;28;20473;-66
2023/10/11 06:37:53;;;;;;;21.57;9.63;;;20.80;98.20;;;;;;5056330;28;20100;-66
2023/10/11 06:40:38;;;;;;;20.23;10.35;;;20.60;97.30;;;;;;5047760;28;20048;-67
2023/10/11 06:43:06;;;;;;;20.15;10.15;;;20.80;98.50;;;;;;5047525;28;20348;-66
2023/10/11 06:45:32;;;;;;;20.35;10.35;;;20.50;98.40;;;;;;5035576;28;20057;-65
2023/10/11 06:48:06;;;;;;;21.83;10.35;;;20.60;98.60;;;;;;5068557;28;20540;-64
2023/10/11 06:50:36;;;;;;;21.58;9.82;;;20.70;98.80;;;;;;5062048;28;20563;-65
2023/10/11 06:53:09;;;;;;;22.48;10.07;;;20.60;97.70;;;;;;5056291;28;20052;-65
2023/10/11 06:55:39;;;;;;;19.38;9.43;;;20.50;98.60;;;;;;5068746;28;20144;-64
2023/10/11 06:58:15;;;;;;;20.27;9.82;;;20.50;98.60;;;;;;5069930;28;20080;-65
2023/10/11 07:00:45;;;;;;;21.77;10.07;;;20.50;98.70;;;;;;5064903;28;20044;-65
2023/10/11 07:05:49;;;;;;;17.65;9.65;;;20.80;98.60;;;;;;5069659;28;20090;-66
2023/10/11 07:08:31;;;;;;;15.10;8.48;;;20.70;97.60;;;;;;5071626;28;20052;-65
2023/10/11 07:13:30;;;;;;;16.40;9.00;;;20.80;99.00;;;;;;5047783;28;20061;-65
2023/10/11 07:16:06;;;;;;;18.50;8.75;;;21.00;99.10;;;;;;5034909;28;20120;-64
2023/10/11 07:18:39;;;;;;;15.77;8.90;;;20.80;98.50;;;;;;5051447;28;20107;-65
2023/10/11 07:21:07;;;;;;;17.92;9.20;;;20.80;98.60;;;;;;5043150;28;20095;-65
2023/10/11 07:23:55;;;;;;;13.73;8.45;;;20.80;98.90;;;;;;5072156;28;20080;-65
2023/10/11 07:26:48;;;;;;;17.63;9.25;;;20.60;98.50;;;;;;5056332;28;20045;-65
2023/10/11 07:29:12;;;;;;;15.80;8.63;;;20.80;98.50;;;;;;5060754;28;20088;-65
2023/10/11 07:31:48;;;;;;;15.27;8.80;;;22.90;98.10;;;;;;5063321;28;20052;-64
2023/10/11 07:34:18;;;;;;;17.30;9.00;;;21.10;97.50;;;;;;5072991;28;20044;-65
2023/10/11 07:36:45;;;;;;;15.10;9.00;;;20.80;97.60;;;;;;5057334;28;20507;-65
2023/10/11 07:39:15;;;;;;;15.75;8.80;;;20.90;98.50;;;;;;5047339;28;20042;-65
2023/10/11 07:41:44;;;;;;;16.63;8.80;;;20.80;98.70;;;;;;5035622;28;20086;-66
2023/10/11 07:44:11;;;;;;;15.00;8.35;;;21.00;97.60;;;;;;5030485;28;20121;-65
2023/10/11 07:46:40;;;;;;;19.98;9.35;;;20.70;97.50;;;;;;5053363;28;20066;-65
2023/10/11 07:49:06;;;;;;;16.15;8.75;;;21.00;97.40;;;;;;5053757;28;20122;-65
2023/10/11 07:51:36;;;;;;;15.43;8.90;;;20.90;97.60;;;;;;5037752;28;20093;-64
2023/10/11 07:54:06;;;;;;;13.80;8.50;;;20.80;98.00;;;;;;5058420;28;20049;-65
2023/10/11 07:56:36;;;;;;;15.52;9.18;;;20.80;98.50;;;;;;5054624;28;20080;-65
2023/10/11 07:59:07;;;;;;;16.25;8.63;;;20.90;98.60;;;;;;5052761;28;20049;-65
2023/10/11 08:01:42;;;;;;;13.50;8.38;;;20.90;98.80;;;;;;5068512;28;20117;-65
2023/10/11 08:04:18;;;;;;;18.33;8.43;;;20.90;98.70;;;;;;5063422;28;20422;-64
2023/10/11 08:06:45;;;;;;;18.77;8.55;;;20.90;97.60;;;;;;5071230;28;20072;-65
2023/10/11 08:09:19;;;;;;;14.40;8.38;;;20.80;97.30;;;;;;5068311;28;20094;-64
2023/10/11 08:11:56;;;;;;;13.38;8.70;;;20.60;97.40;;;;;;5052189;28;20052;-64
2023/10/11 08:14:28;;;;;;;15.93;8.45;;;20.70;97.60;;;;;;5055055;28;20517;-65
2023/10/11 08:16:59;;;;;;;14.02;8.10;;;21.00;97.00;;;;;;5032064;28;20111;-64
2023/10/11 08:19:27;;;;;;;16.48;8.70;;;20.90;98.90;;;;;;5072416;28;20047;-64
2023/10/11 08:21:57;;;;;;;14.88;8.32;;;21.00;98.70;;;;;;5063608;28;20135;-65
2023/10/11 08:24:27;;;;;;;17.95;9.13;;;20.90;97.10;;;;;;5072565;28;20370;-65
2023/10/11 08:27:06;;;;;;;16.58;8.90;;;21.00;97.80;;;;;;5052176;28;20048;-65
2023/10/11 08:29:32;;;;;;;15.38;8.52;;;20.90;98.80;;;;;;5031290;28;20057;-64
2023/10/11 08:31:58;;;;;;;15.85;8.98;;;20.80;97.50;;;;;;5039461;28;20374;-65
2023/10/11 08:34:28;;;;;;;15.73;8.40;;;21.00;97.60;;;;;;5034362;28;20048;-65
2023/10/11 08:36:54;;;;;;;16.77;8.77;;;20.80;98.60;;;;;;5046582;28;20044;-65
2023/10/11 08:39:42;;;;;;;14.50;8.27;;;20.80;98.90;;;;;;5068942;28;20060;-64
2023/10/11 08:42:17;;;;;;;15.00;8.80;;;20.90;97.00;;;;;;5064433;28;20147;-64
2023/10/11 08:44:46;;;;;;;14.35;8.80;;;20.70;97.40;;;;;;5068094;28;20115;-65
2023/10/11 08:47:16;;;;;;;18.25;8.90;;;20.90;99.10;;;;;;5069145;28;20628;-65
2023/10/11 08:49:48;;;;;;;14.82;8.38;;;21.00;99.00;;;;;;5047895;28;20083;-65
2023/10/11 08:52:24;;;;;;;16.57;8.73;;;21.00;97.60;;;;;;5066645;28;20048;-64
2023/10/11 08:54:51;;;;;;;17.13;8.90;;;21.00;98.70;;;;;;5068883;28;20398;-65
2023/10/11 08:57:25;;;;;;;14.15;8.65;;;20.80;99.10;;;;;;5046743;28;20502;-65
2023/10/11 08:59:56;;;;;;;14.15;8.82;;;21.00;97.90;;;;;;5063743;28;20072;-65
2023/10/11 09:02:34;;;;;;;15.38;8.80;;;20.90;98.70;;;;;;5055787;28;20148;-65
2023/10/11 09:05:06;;;;;;;14.15;9.00;;;21.00;98.80;;;;;;5051635;28;20053;-65
2023/10/11 09:07:51;;;;;;;18.67;9.67;;;20.70;98.70;;;;;;5066624;28;20494;-64
2023/10/11 09:10:27;;;;;;;14.93;9.23;;;20.80;98.80;;;;;;5063017;28;20505;-65
2023/10/11 09:12:56;;;;;;;15.32;9.00;;;20.90;97.20;;;;;;5036186;28;20045;-65
2023/10/11 09:15:44;;;;;;;16.52;9.18;;;20.90;99.10;;;;;;5056743;28;20429;-64
2023/10/11 09:18:17;;;;;;;15.18;9.55;;;20.90;98.80;;;;;;5048849;28;20048;-64
2023/10/11 09:21:29;;;;;;;;;;;21.10;97.20;;;;;;5065580;28;20075;-65
2023/10/11 09:23:47;;;;;;;15.65;9.18;;;21.00;99.00;;;;;;5066395;28;19963;-65
2023/10/11 09:26:35;;;;;;;15.35;9.25;;;20.80;97.60;;;;;;5034496;28;20466;-65
2023/10/11 09:29:03;;;;;;;16.35;9.73;;;20.80;98.70;;;;;;5041174;28;20497;-64
2023/10/11 09:31:31;;;;;;;16.63;9.20;;;21.00;97.90;;;;;;5063376;28;20052;-64
2023/10/11 09:34:03;;;;;;;15.43;9.35;;;;;;;;;;5058766;28;20048;-64
2023/10/11 09:36:29;;;;;;;15.60;9.15;;;20.80;99.30;;;;;;5051671;28;20501;-64
2023/10/11 09:38:56;;;;;;;14.57;8.75;;;21.10;97.90;;;;;;5050503;28;20169;-65
2023/10/11 09:41:23;;;;;;;14.68;8.85;;;20.70;97.90;;;;;;5064211;28;20118;-65
2023/10/11 09:43:48;;;;;;;14.82;9.35;;;21.00;99.30;;;;;;5067158;28;20106;-64
2023/10/11 09:46:15;;;;;;;15.27;9.27;;;20.80;98.80;;;;;;5038529;28;20044;-65
2023/10/11 09:48:41;;;;;;;15.82;8.80;;;20.90;97.90;;;;;;5057991;28;20040;-64
2023/10/11 09:51:20;;;;;;;14.88;9.27;;;21.00;97.80;;;;;;5068492;28;20458;-65
2023/10/11 09:53:53;;;;;;;14.05;9.68;;;21.10;97.70;;;;;;5052136;28;20044;-65
2023/10/11 09:56:32;;;;;;;;;;;21.10;97.50;;;;;;5054101;28;20052;-65
2023/10/11 09:59:29;;;;;;;15.13;9.48;;;21.10;97.50;;;;;;5072591;28;19956;-65
2023/10/11 10:02:29;;;;;;;16.75;9.63;;;21.10;99.10;;;;;;5065772;28;20052;-64
2023/10/11 10:04:55;;;;;;;12.10;9.13;;;21.10;99.00;;;;;;5040477;28;20057;-65
2023/10/11 10:07:25;;;;;;;15.90;9.77;;;21.20;97.90;;;;;;5057098;28;20045;-64
2023/10/11 10:09:59;;;;;;;13.77;9.23;;;20.80;98.80;;;;;;5062283;28;20056;-65
2023/10/11 10:12:26;;;;;;;12.82;9.18;;;21.10;98.00;;;;;;5031563;28;20056;-65
2023/10/11 10:15:07;;;;;;;14.32;9.30;;;21.10;98.90;;;;;;5052658;28;20057;-65
2023/10/11 10:17:42;;;;;;;13.82;9.02;;;21.10;99.20;;;;;;5069474;28;20056;-64
2023/10/11 10:20:33;;;;;;;13.25;8.68;;;21.00;97.90;;;;;;5073132;28;20083;-65
2023/10/11 10:23:17;;;;;;;12.38;8.40;;;21.00;97.40;;;;;;5069672;28;20080;-64
2023/10/11 10:25:46;;;;;;;14.35;8.48;;;21.20;98.90;;;;;;5044146;28;20398;-65
2023/10/11 10:28:36;;;;;;;12.68;8.10;;;21.20;99.00;;;;;;5057090;28;20527;-65
2023/10/11 10:31:12;;;;;;;11.30;8.02;;;21.00;97.40;;;;;;5069944;28;20037;-65
2023/10/11 10:33:41;;;;;;;11.90;7.28;;;21.10;97.90;;;;;;5039956;28;20560;-65
2023/10/11 10:36:28;;;;;;;10.63;7.55;;;21.10;97.20;;;;;;5047908;28;20872;-65
2023/10/11 10:39:00;;;;;;;12.65;7.35;;;21.40;98.70;;;;;;5050819;28;20066;-65
2023/10/11 10:41:36;;;;;;;10.73;7.45;;;21.20;97.70;;;;;;5058578;28;20516;-65
2023/10/11 10:44:06;;;;;;;10.25;7.13;;;21.10;97.80;;;;;;5055186;28;20049;-65
2023/10/11 10:46:32;;;;;;;11.65;6.90;;;21.30;99.00;;;;;;5054745;28;20045;-65
2023/10/11 10:48:58;;;;;;;11.32;7.18;;;21.60;97.60;;;;;;5044866;28;20037;-64
2023/10/11 10:51:27;;;;;;;10.68;6.72;;;21.60;97.60;;;;;;5071458;28;20040;-64
2023/10/11 10:53:53;;;;;;;13.63;6.60;;;21.40;97.10;;;;;;5060548;28;20036;-64
2023/10/11 10:56:25;;;;;;;10.20;6.60;;;21.30;97.40;;;;;;5069568;28;20505;-65
2023/10/11 10:59:11;;;;;;;10.82;6.38;;;21.20;97.60;;;;;;5062082;28;20056;-65
2023/10/11 11:01:47;;;;;;;11.07;6.70;;;21.50;97.20;;;;;;5054145;28;20184;-64
2023/10/11 11:04:20;;;;;;;10.60;6.00;;;21.30;97.60;;;;;;5052468;28;20060;-64
2023/10/11 11:06:49;;;;;;;11.15;6.30;;;21.50;97.00;;;;;;5065751;28;20069;-65
2023/10/11 11:09:25;;;;;;;10.35;5.72;;;21.40;97.60;;;;;;5031657;28;20081;-65
2023/10/11 11:11:54;;;;;;;12.00;6.30;;;21.50;98.60;;;;;;5055144;28;20490;-65
2023/10/11 11:14:20;;;;;;;8.82;5.82;;;21.50;97.50;;;;;;5040483;28;20053;-65
2023/10/11 11:16:56;;;;;;;8.35;5.78;;;21.80;97.50;;;;;;5037198;28;20390;-65
2023/10/11 11:19:34;;;;;;;8.75;5.40;;;21.50;97.60;;;;;;5068670;28;20144;-64
2023/10/11 11:22:15;;;;;;;10.27;5.88;;;22.00;97.00;;;;;;5066426;28;20079;-65
2023/10/11 11:24:44;;;;;;;11.05;6.07;;;21.80;97.50;;;;;;5055344;28;20059;-65
2023/10/11 11:27:27;;;;;;;8.35;5.40;;;21.70;98.40;;;;;;5069510;28;20158;-65
2023/10/11 11:29:53;;;;;;;9.40;5.35;;;21.90;97.60;;;;;;5071708;28;20048;-65
2023/10/11 11:32:39;;;;;;;10.38;5.50;;;21.90;97.30;;;;;;5042479;28;20057;-65
2023/10/11 11:35:09;;;;;;;10.23;5.18;;;21.90;96.70;;;;;;5045769;28;20040;-65
2023/10/11 11:38:01;;;;;;;9.35;5.25;;;22.00;97.00;;;;;;5066369;28;20044;-65
2023/10/11 11:40:27;;;;;;;7.72;4.88;;;22.00;96.60;;;;;;5071264;28;20079;-65
2023/10/11 11:42:53;;;;;;;8.50;4.80;;;21.90;98.40;;;;;;5063390;28;20127;-65
2023/10/11 11:45:20;;;;;;;8.40;5.07;;;22.20;97.10;;;;;;5069961;28;20136;-65
2023/10/11 11:47:58;;;;;;;9.80;5.00;;;21.80;97.00;;;;;;5069600;28;20497;-65
2023/10/11 11:50:33;;;;;;;8.88;5.22;;;21.90;96.60;;;;;;5052523;28;20045;-65
2023/10/11 11:53:00;;;;;;;8.95;4.43;;;21.90;97.20;;;;;;5035712;28;20120;-65
2023/10/11 11:55:26;;;;;;;7.32;4.60;;;21.90;97.10;;;;;;5037919;28;20423;-65
2023/10/11 11:57:53;;;;;;;9.00;4.53;;;21.90;97.00;;;;;;5061359;28;20052;-65
2023/10/11 12:02:52;;;;;;;9.38;4.88;;;22.00;96.60;;;;;;5069498;28;20063;-65
2023/10/11 12:05:18;;;;;;;10.18;4.63;;;22.00;97.10;;;;;;5050443;28;20056;-65
2023/10/11 12:07:44;;;;;;;8.05;4.10;;;22.20;97.00;;;;;;5055437;28;20205;-66
2023/10/11 12:10:25;;;;;;;7.40;4.65;;;21.80;96.80;;;;;;5059910;28;20213;-65
2023/10/11 12:13:01;;;;;;;6.90;4.20;;;21.90;96.50;;;;;;5051104;28;20080;-65
2023/10/11 12:15:28;;;;;;;8.35;4.43;;;22.40;96.50;;;;;;5056621;28;20398;-65
2023/10/11 12:17:54;;;;;;;6.95;4.32;;;22.20;98.00;;;;;;5065974;28;20048;-65
2023/10/11 12:20:22;;;;;;;8.02;4.57;;;22.20;96.60;;;;;;5054526;28;20102;-65
2023/10/11 12:22:50;;;;;;;7.93;4.30;;;22.40;96.50;;;;;;5052273;28;20053;-65
2023/10/11 12:25:24;;;;;;;8.57;4.13;;;23.20;96.60;;;;;;5040096;28;20065;-65
2023/10/11 12:27:50;;;;;;;7.10;3.95;;;22.90;95.30;;;;;;5046702;28;20037;-65
2023/10/11 12:30:22;;;;;;;8.98;4.07;;;23.10;95.20;;;;;;5037928;28;20402;-66
2023/10/11 12:32:49;;;;;;;7.50;3.70;;;23.00;94.60;;;;;;5068885;28;20102;-65
2023/10/11 12:35:15;;;;;;;6.47;3.67;;;23.10;96.50;;;;;;5069239;28;20494;-65
2023/10/11 12:37:41;;;;;;;9.00;4.03;;;23.00;95.10;;;;;;5068137;28;20044;-66
2023/10/11 12:40:21;;;;;;;7.05;3.80;;;23.00;94.60;;;;;;5054738;28;20060;-65
2023/10/11 12:42:48;;;;;;;6.13;3.55;;;23.10;94.40;;;;;;5052789;28;20118;-65
2023/10/11 12:45:16;;;;;;;7.53;3.78;;;22.90;94.70;;;;;;5051718;28;20049;-65
2023/10/11 12:47:43;;;;;;;7.35;3.50;;;22.70;94.80;;;;;;5066377;28;20631;-65
2023/10/11 12:50:09;;;;;;;7.63;4.05;;;22.90;95.10;;;;;;5026025;28;20081;-65
2023/10/11 12:52:38;;;;;;;7.72;4.13;;;22.30;94.90;;;;;;5057513;28;20048;-65
2023/10/11 12:55:07;;;;;;;8.95;3.90;;;22.60;95.30;;;;;;5052693;28;20059;-65
2023/10/11 12:57:38;;;;;;;6.07;3.47;;;22.40;95.40;;;;;;5048535;28;20048;-65
2023/10/11 13:00:16;;;;;;;8.45;3.67;;;22.50;95.60;;;;;;5052500;28;20060;-65
2023/10/11 13:02:48;;;;;;;6.65;3.45;;;22.30;95.50;;;;;;5051604;28;20087;-64
2023/10/11 13:05:15;;;;;;;6.93;3.63;;;22.30;95.70;;;;;;5070021;28;20061;-64
2023/10/11 13:07:42;;;;;;;6.22;3.50;;;22.30;95.70;;;;;;5069767;28;20113;-65
2023/10/11 13:10:08;;;;;;;6.30;3.40;;;22.30;95.80;;;;;;5050418;28;20046;-65
2023/10/11 13:12:37;;;;;;;8.98;3.45;;;22.20;95.80;;;;;;5069538;28;20048;-64
2023/10/11 13:15:08;;;;;;;6.63;3.20;;;22.00;95.90;;;;;;5052331;28;20044;-65
2023/10/11 13:17:34;;;;;;;7.20;3.25;;;22.00;95.80;;;;;;5045277;28;20053;-65
2023/10/11 13:20:09;;;;;;;6.97;3.17;;;22.00;95.90;;;;;;5038579;28;20041;-65
2023/10/11 13:22:35;;;;;;;6.65;3.63;;;22.00;96.10;;;;;;5057426;28;20045;-65
2023/10/11 13:25:02;;;;;;;7.47;3.55;;;22.00;96.20;;;;;;5059966;28;20051;-65
2023/10/11 13:27:30;;;;;;;8.45;3.58;;;21.90;97.40;;;;;;5070526;28;20040;-65
2023/10/11 13:30:02;;;;;;;5.50;2.95;;;21.90;96.40;;;;;;5059534;28;20398;-65
2023/10/11 13:32:28;;;;;;;7.50;3.60;;;21.90;97.50;;;;;;5037943;28;20041;-65
2023/10/11 13:34:54;;;;;;;5.95;3.15;;;22.00;96.50;;;;;;5062678;28;20052;-64
2023/10/11 13:37:22;;;;;;;5.38;3.20;;;21.90;96.40;;;;;;5070317;28;20042;-65
2023/10/11 13:39:48;;;;;;;6.85;3.72;;;22.00;96.40;;;;;;5050576;28;20040;-65
2023/10/11 13:42:14;;;;;;;7.10;3.28;;;21.70;97.80;;;;;;5063934;28;20056;-65
2023/10/11 13:44:43;;;;;;;6.22;2.92;;;22.00;96.40;;;;;;5066547;28;20120;-65
2023/10/11 13:47:09;;;;;;;7.40;3.13;;;21.80;97.80;;;;;;5048997;28;20135;-64
2023/10/11 13:49:37;;;;;;;6.47;3.72;;;22.00;96.50;;;;;;5044593;28;20136;-64
2023/10/11 13:52:03;;;;;;;5.78;3.30;;;21.90;96.40;;;;;;5051788;28;20490;-64
2023/10/11 13:54:36;;;;;;;6.10;2.88;;;21.80;97.80;;;;;;5057231;28;20056;-64